createdAt,value
2022-10-21T00:00:53.878Z,9.10
2022-10-21T00:03:22.334Z,9.57
2022-10-21T00:05:50.031Z,8.47
2022-10-21T00:08:18.471Z,8.70
2022-10-21T00:10:46.039Z,9.90
2022-10-21T00:13:13.339Z,10.87
2022-10-21T00:15:40.260Z,10.10
2022-10-21T00:18:07.369Z,11.60
2022-10-21T00:20:37.295Z,11.10
2022-10-21T00:23:07.312Z,11.07
2022-10-21T00:25:34.266Z,11.13
2022-10-21T00:28:01.514Z,12.10
2022-10-21T00:30:28.423Z,11.27
2022-10-21T00:32:59.330Z,11.90
2022-10-21T00:35:32.355Z,11.53
2022-10-21T00:37:59.452Z,11.23
2022-10-21T00:40:26.480Z,10.70
2022-10-21T00:42:53.723Z,11.93
2022-10-21T00:45:24.235Z,11.00
2022-10-21T00:48:03.403Z,10.77
2022-10-21T00:50:38.734Z,11.70
2022-10-21T00:53:14.475Z,10.40
2022-10-21T00:55:49.957Z,11.30
2022-10-21T00:58:21.495Z,9.90
2022-10-21T01:00:50.485Z,11.03
2022-10-21T01:03:17.703Z,10.40
2022-10-21T01:05:45.328Z,10.00
2022-10-21T01:08:12.894Z,10.33
2022-10-21T01:10:40.487Z,10.20
2022-10-21T01:14:11.903Z,10.63
2022-10-21T01:17:00.688Z,10.43
2022-10-21T01:20:28.067Z,11.53
2022-10-21T01:23:43.629Z,10.00
2022-10-21T01:26:58.365Z,9.23
2022-10-21T01:29:57.762Z,10.93
2022-10-21T01:32:48.955Z,10.37
2022-10-21T01:35:49.435Z,11.10
2022-10-21T01:39:09.780Z,10.47
2022-10-21T01:44:57.674Z,9.97
2022-10-21T01:47:43.400Z,10.73
2022-10-21T01:50:34.780Z,9.60
2022-10-21T01:53:11.751Z,10.07
2022-10-21T01:55:40.974Z,11.47
2022-10-21T01:58:19.569Z,12.40
2022-10-21T02:00:48.806Z,11.20
2022-10-21T02:03:28.949Z,12.30
2022-10-21T02:05:56.081Z,12.57
2022-10-21T02:08:23.233Z,12.60
2022-10-21T02:10:56.893Z,12.77
2022-10-21T02:13:31.119Z,12.63
2022-10-21T02:16:03.483Z,12.63
2022-10-21T02:18:30.643Z,10.97
2022-10-21T02:21:06.251Z,12.00
2022-10-21T02:23:50.713Z,10.50
2022-10-21T02:26:18.284Z,12.50
2022-10-21T02:28:45.808Z,10.87
2022-10-21T02:31:22.056Z,9.60
2022-10-21T02:34:17.326Z,10.93
2022-10-21T02:37:11.947Z,10.63
2022-10-21T02:39:56.205Z,9.60
2022-10-21T02:42:31.227Z,10.27
2022-10-21T02:45:01.480Z,10.00
2022-10-21T02:47:29.750Z,10.60
2022-10-21T02:49:56.708Z,10.53
2022-10-21T02:52:23.694Z,10.23
2022-10-21T02:54:50.594Z,9.17
2022-10-21T02:57:17.649Z,9.20
2022-10-21T02:59:44.698Z,9.57
2022-10-21T03:02:11.592Z,9.47
2022-10-21T03:04:38.668Z,10.20
2022-10-21T03:07:05.784Z,10.33
2022-10-21T03:09:32.768Z,11.77
2022-10-21T03:11:59.742Z,12.63
2022-10-21T03:14:26.811Z,11.13
2022-10-21T03:16:53.757Z,11.33
2022-10-21T03:19:20.670Z,11.33
2022-10-21T03:21:47.746Z,11.20
2022-10-21T03:24:24.950Z,10.60
2022-10-21T03:26:55.696Z,11.10
2022-10-21T03:29:22.626Z,10.73
2022-10-21T03:31:49.635Z,11.00
2022-10-21T03:34:16.827Z,10.57
2022-10-21T03:36:43.765Z,9.43
2022-10-21T03:39:12.163Z,11.80
2022-10-21T03:41:39.409Z,9.23
2022-10-21T03:44:06.609Z,9.70
2022-10-21T03:46:33.662Z,9.97
2022-10-21T03:49:04.285Z,10.37
2022-10-21T03:51:32.891Z,11.20
2022-10-21T03:53:59.858Z,11.20
2022-10-21T03:56:27.142Z,11.50
2022-10-21T03:58:58.507Z,10.73
2022-10-21T04:01:27.371Z,11.20
2022-10-21T04:03:54.571Z,12.30
2022-10-21T04:06:21.574Z,12.40
2022-10-21T04:08:48.779Z,11.07
2022-10-21T04:11:16.033Z,12.53
2022-10-21T04:13:43.149Z,11.80
2022-10-21T04:16:19.768Z,11.60
2022-10-21T04:18:47.351Z,11.00
2022-10-21T04:21:14.724Z,10.73
2022-10-21T04:23:42.195Z,8.87
2022-10-21T04:26:09.917Z,7.30
2022-10-21T04:28:37.577Z,4.63
2022-10-21T04:31:04.935Z,3.27
2022-10-21T04:33:31.905Z,3.97
2022-10-21T04:35:59.273Z,3.40
2022-10-21T04:38:26.889Z,3.77
2022-10-21T04:41:02.963Z,3.30
2022-10-21T04:43:30.553Z,3.27
2022-10-21T04:45:57.478Z,3.43
2022-10-21T04:48:24.633Z,2.97
2022-10-21T04:50:53.008Z,2.90
2022-10-21T04:53:21.279Z,3.10
2022-10-21T04:55:53.490Z,2.40
2022-10-21T04:58:22.384Z,3.50
2022-10-21T05:00:53.283Z,2.87
2022-10-21T05:03:21.094Z,2.53
2022-10-21T05:05:52.481Z,3.10
2022-10-21T05:08:20.902Z,2.63
2022-10-21T05:10:48.233Z,3.00
2022-10-21T05:13:15.684Z,2.77
2022-10-21T05:15:42.950Z,2.73
2022-10-21T05:18:12.287Z,2.67
2022-10-21T05:20:39.396Z,2.73
2022-10-21T05:23:06.327Z,2.67
2022-10-21T05:25:34.366Z,3.50
2022-10-21T05:28:01.990Z,3.23
2022-10-21T05:30:29.029Z,3.60
2022-10-21T05:32:56.159Z,3.20
2022-10-21T05:35:23.337Z,2.80
2022-10-21T05:37:50.203Z,3.73
2022-10-21T05:40:18.491Z,3.40
2022-10-21T05:42:45.961Z,4.27
2022-10-21T05:45:12.981Z,4.10
2022-10-21T05:47:44.061Z,4.00
2022-10-21T05:50:12.747Z,4.17
2022-10-21T05:52:40.944Z,3.30
2022-10-21T05:55:09.745Z,3.03
2022-10-21T05:57:38.571Z,2.90
2022-10-21T06:00:07.361Z,4.37
2022-10-21T06:02:35.967Z,3.50
2022-10-21T06:05:04.051Z,3.30
2022-10-21T06:07:30.992Z,3.60
2022-10-21T06:09:58.087Z,3.37
2022-10-21T06:12:25.460Z,2.40
2022-10-21T06:14:52.444Z,2.37
2022-10-21T06:17:19.456Z,2.53
2022-10-21T06:19:50.021Z,2.40
2022-10-21T06:22:18.047Z,2.23
2022-10-21T06:24:46.182Z,2.23
2022-10-21T06:27:13.806Z,2.60
2022-10-21T06:29:40.958Z,1.90
2022-10-21T06:32:07.862Z,2.20
2022-10-21T06:34:34.798Z,2.30
2022-10-21T06:37:01.695Z,3.37
2022-10-21T06:39:28.705Z,2.63
2022-10-21T06:41:55.792Z,2.47
2022-10-21T06:44:39.592Z,2.40
2022-10-21T06:47:06.955Z,2.83
2022-10-21T06:49:34.003Z,3.00
2022-10-21T06:52:01.116Z,3.27
2022-10-21T06:54:28.287Z,3.13
2022-10-21T06:56:55.420Z,3.47
2022-10-21T06:59:22.581Z,3.70
2022-10-21T07:01:59.695Z,3.00
2022-10-21T07:04:28.173Z,3.37
2022-10-21T07:06:55.404Z,2.80
2022-10-21T07:09:22.701Z,3.93
2022-10-21T07:11:49.697Z,3.20
2022-10-21T07:14:16.913Z,3.63
2022-10-21T07:16:43.893Z,2.60
2022-10-21T07:19:11.406Z,3.40
2022-10-21T07:21:38.550Z,2.60
2022-10-21T07:24:06.300Z,2.93
2022-10-21T07:26:34.769Z,3.37
2022-10-21T07:29:02.374Z,6.43
2022-10-21T07:31:34.485Z,6.30
2022-10-21T07:36:39.819Z,7.83
2022-10-21T07:39:12.591Z,8.70
2022-10-21T07:41:47.582Z,6.43
2022-10-21T07:44:16.477Z,7.40
2022-10-21T07:46:44.684Z,7.73
2022-10-21T07:49:13.635Z,8.47
2022-10-21T07:51:41.941Z,7.60
2022-10-21T07:54:09.818Z,7.27
2022-10-21T07:56:45.527Z,6.77
2022-10-21T07:59:14.855Z,6.70
2022-10-21T08:01:44.601Z,6.00
2022-10-21T08:04:15.954Z,4.70
2022-10-21T08:06:46.515Z,4.70
2022-10-21T08:09:15.393Z,3.73
2022-10-21T08:11:42.741Z,3.70
2022-10-21T08:14:11.796Z,3.20
2022-10-21T08:16:39.195Z,2.67
2022-10-21T08:19:07.583Z,2.33
2022-10-21T08:21:36.410Z,2.90
2022-10-21T08:24:04.773Z,2.57
2022-10-21T08:26:32.280Z,3.33
2022-10-21T08:28:59.549Z,2.40
2022-10-21T08:31:26.480Z,1.93
2022-10-21T08:33:55.569Z,2.40
2022-10-21T08:36:25.767Z,1.87
2022-10-21T08:38:53.571Z,2.77
2022-10-21T08:41:29.702Z,2.03
2022-10-21T08:44:20.318Z,1.10
2022-10-21T08:47:11.277Z,1.80
2022-10-21T08:50:16.492Z,1.53
2022-10-21T08:52:59.884Z,1.40
2022-10-21T08:55:38.004Z,1.10
2022-10-21T08:58:05.377Z,1.07
2022-10-21T09:01:26.425Z,1.20
2022-10-21T09:04:04.293Z,1.10
2022-10-21T09:06:57.810Z,1.20
2022-10-21T09:09:41.081Z,1.07
2022-10-21T09:12:49.051Z,1.00
2022-10-21T09:15:45.434Z,0.87
2022-10-21T09:18:30.921Z,0.60
2022-10-21T09:22:33.565Z,1.07
2022-10-21T09:25:15.001Z,1.07
2022-10-21T09:27:55.613Z,1.40
2022-10-21T09:30:25.231Z,0.70
2022-10-21T09:32:59.970Z,0.87
2022-10-21T09:35:41.021Z,0.87
2022-10-21T09:38:13.590Z,0.90
2022-10-21T09:40:40.694Z,1.20
2022-10-21T09:43:24.902Z,1.10
2022-10-21T09:45:52.713Z,1.30
2022-10-21T09:48:25.307Z,1.00
2022-10-21T09:51:02.273Z,1.00
2022-10-21T09:53:52.899Z,1.40
2022-10-21T09:56:27.953Z,1.33
2022-10-21T09:59:14.275Z,1.20
2022-10-21T10:01:43.972Z,1.30
2022-10-21T10:04:22.310Z,1.23
2022-10-21T10:06:50.445Z,1.43
2022-10-21T10:09:34.482Z,1.13
2022-10-21T10:12:13.265Z,2.07
2022-10-21T10:14:47.014Z,1.70
2022-10-21T10:17:37.333Z,1.50
2022-10-21T10:20:04.296Z,1.60
2022-10-21T10:22:43.461Z,1.30
2022-10-21T10:25:22.047Z,1.97
2022-10-21T10:28:20.503Z,1.17
2022-10-21T10:30:52.416Z,1.03
2022-10-21T10:33:26.490Z,1.00
2022-10-21T10:36:05.202Z,1.13
2022-10-21T10:38:52.406Z,1.40
2022-10-21T10:41:19.831Z,1.70
2022-10-21T10:43:51.694Z,1.03
2022-10-21T10:46:30.469Z,0.80
2022-10-21T10:49:12.786Z,1.10
2022-10-21T10:51:42.970Z,1.27
2022-10-21T10:54:24.898Z,1.20
2022-10-21T10:57:26.553Z,1.40
2022-10-21T11:00:23.594Z,1.67
2022-10-21T11:03:13.620Z,1.10
2022-10-21T11:05:56.167Z,0.77
2022-10-21T11:08:34.311Z,1.13
2022-10-21T11:11:06.868Z,1.30
2022-10-21T11:13:38.815Z,1.80
2022-10-21T11:16:23.284Z,0.87
2022-10-21T11:19:15.476Z,0.87
2022-10-21T11:21:54.504Z,1.67
2022-10-21T11:25:04.574Z,1.37
2022-10-21T11:28:19.030Z,1.67
2022-10-21T11:31:43.719Z,1.00
2022-10-21T11:35:08.393Z,0.80
2022-10-21T11:37:50.702Z,0.70
2022-10-21T11:40:28.785Z,1.00
2022-10-21T11:43:01.973Z,0.97
2022-10-21T11:46:08.136Z,1.00
2022-10-21T11:49:18.101Z,0.90
2022-10-21T11:52:18.766Z,1.00
2022-10-21T11:55:09.614Z,0.90
2022-10-21T11:58:20.140Z,0.70
2022-10-21T12:01:24.224Z,1.17
2022-10-21T12:04:21.848Z,1.00
2022-10-21T12:07:13.918Z,0.57
2022-10-21T12:10:21.087Z,1.40
2022-10-21T12:12:51.333Z,0.90
2022-10-21T12:15:29.128Z,1.13
2022-10-21T12:17:58.102Z,1.00
2022-10-21T12:20:27.212Z,1.30
2022-10-21T12:23:05.507Z,1.87
2022-10-21T12:25:48.992Z,0.97
2022-10-21T12:28:36.375Z,1.23
2022-10-21T12:31:40.428Z,1.23
2022-10-21T12:34:10.737Z,1.30
2022-10-21T12:36:40.933Z,1.47
2022-10-21T12:39:34.161Z,1.33
2022-10-21T12:42:27.995Z,0.93
2022-10-21T12:44:54.966Z,1.50
2022-10-21T12:47:42.289Z,1.03
2022-10-21T12:50:15.256Z,0.93
2022-10-21T12:52:44.926Z,0.80
2022-10-21T12:55:27.116Z,1.10
2022-10-21T12:58:02.607Z,1.07
2022-10-21T13:00:29.475Z,0.93
2022-10-21T13:03:21.936Z,0.83
2022-10-21T13:05:49.909Z,0.90
2022-10-21T13:08:22.938Z,0.97
2022-10-21T13:11:05.644Z,0.83
2022-10-21T13:13:43.637Z,0.57
2022-10-21T13:16:19.845Z,0.80
2022-10-21T13:19:04.637Z,1.10
2022-10-21T13:21:41.439Z,1.20
2022-10-21T13:24:11.475Z,0.80
2022-10-21T13:27:01.507Z,1.03
2022-10-21T13:29:33.965Z,0.80
2022-10-21T13:32:19.019Z,0.90
2022-10-21T13:34:58.127Z,1.00
2022-10-21T13:37:35.422Z,0.70
2022-10-21T13:40:18.560Z,1.03
2022-10-21T13:42:59.497Z,0.80
2022-10-21T13:45:36.439Z,0.80
2022-10-21T13:48:07.176Z,0.70
2022-10-21T13:50:40.785Z,0.70
2022-10-21T13:53:38.090Z,1.03
2022-10-21T13:56:08.710Z,0.90
2022-10-21T13:58:41.168Z,0.87
2022-10-21T14:01:20.388Z,1.20
2022-10-21T14:06:36.445Z,0.80
2022-10-21T14:09:08.165Z,1.20
2022-10-21T14:11:45.885Z,1.33
2022-10-21T14:14:17.491Z,1.27
2022-10-21T14:17:03.209Z,0.87
2022-10-21T14:19:35.517Z,1.20
2022-10-21T14:24:43.797Z,1.50
2022-10-21T14:27:26.629Z,0.90
2022-10-21T14:29:54.543Z,1.30
2022-10-21T14:32:25.753Z,0.63
2022-10-21T14:35:09.763Z,0.87
2022-10-21T14:37:47.123Z,0.97
2022-10-21T14:43:22.906Z,1.30
2022-10-21T14:45:54.274Z,1.17
2022-10-21T14:48:32.225Z,1.47
2022-10-21T14:51:13.571Z,0.80
2022-10-21T14:54:02.048Z,0.70
2022-10-21T14:56:40.605Z,1.80
2022-10-21T14:59:39.412Z,0.90
2022-10-21T15:02:21.772Z,0.60
2022-10-21T15:04:52.909Z,0.90
2022-10-21T15:10:24.892Z,1.00
2022-10-21T15:12:52.758Z,0.83
2022-10-21T15:15:55.932Z,0.87
2022-10-21T15:18:36.677Z,0.87
2022-10-21T15:21:09.861Z,0.90
2022-10-21T15:23:41.367Z,1.30
2022-10-21T15:26:23.243Z,1.03
2022-10-21T15:28:51.883Z,1.13
2022-10-21T15:31:29.356Z,1.20
2022-10-21T15:33:58.514Z,1.00
2022-10-21T15:36:25.873Z,0.90
2022-10-21T15:38:54.646Z,1.07
2022-10-21T15:41:26.132Z,1.67
2022-10-21T15:44:13.858Z,0.90
2022-10-21T15:46:47.015Z,1.10
2022-10-21T15:49:22.439Z,1.30
2022-10-21T15:51:50.738Z,1.30
2022-10-21T15:54:19.367Z,1.20
2022-10-21T15:56:51.837Z,1.10
2022-10-21T15:59:32.038Z,0.93
2022-10-21T16:02:00.774Z,1.50
2022-10-21T16:04:27.817Z,1.40
2022-10-21T16:06:55.369Z,1.73
2022-10-21T16:09:26.575Z,3.20
2022-10-21T16:12:00.359Z,3.83
2022-10-21T16:14:30.462Z,2.90
2022-10-21T16:16:59.051Z,3.47
2022-10-21T16:19:26.354Z,2.90
2022-10-21T16:21:53.432Z,3.33
2022-10-21T16:24:20.392Z,3.00
2022-10-21T16:26:49.449Z,2.17
2022-10-21T16:29:23.067Z,2.10
2022-10-21T16:31:51.947Z,2.00
2022-10-21T16:34:19.881Z,1.83
2022-10-21T16:36:46.846Z,1.73
2022-10-21T16:39:21.970Z,2.50
2022-10-21T16:41:49.333Z,1.70
2022-10-21T16:44:16.605Z,2.07
2022-10-21T16:46:55.093Z,2.40
2022-10-21T16:49:26.906Z,1.27
2022-10-21T16:51:54.616Z,2.30
2022-10-21T16:54:23.194Z,2.00
2022-10-21T16:56:52.246Z,4.27
2022-10-21T16:59:21.922Z,5.07
2022-10-21T17:01:48.948Z,8.30
2022-10-21T17:04:16.079Z,18.57
2022-10-21T17:06:43.076Z,14.20
2022-10-21T17:09:10.366Z,6.43
2022-10-21T17:11:40.960Z,5.20
2022-10-21T17:14:19.311Z,2.37
2022-10-21T17:16:46.645Z,2.60
2022-10-21T17:19:14.645Z,2.43
2022-10-21T17:21:42.168Z,2.40
2022-10-21T17:24:15.039Z,1.67
2022-10-21T17:26:42.579Z,2.80
2022-10-21T17:29:12.674Z,2.60
2022-10-21T17:31:42.100Z,2.30
2022-10-21T17:34:26.603Z,1.97
2022-10-21T17:36:53.921Z,1.90
2022-10-21T17:39:21.611Z,2.30
2022-10-21T17:41:48.687Z,1.80
2022-10-21T17:44:16.514Z,2.87
2022-10-21T17:46:43.638Z,2.67
2022-10-21T17:49:10.706Z,1.93
2022-10-21T17:51:37.773Z,2.37
2022-10-21T17:54:04.829Z,2.60
2022-10-21T17:56:31.943Z,2.67
2022-10-21T17:59:00.386Z,3.20
2022-10-21T18:01:28.158Z,3.37
2022-10-21T18:03:58.860Z,2.83
2022-10-21T18:06:26.728Z,1.93
2022-10-21T18:08:53.835Z,2.20
2022-10-21T18:11:21.445Z,2.80
2022-10-21T18:13:53.455Z,2.83
2022-10-21T18:16:23.934Z,2.47
2022-10-21T18:18:50.990Z,2.40
2022-10-21T18:21:23.547Z,2.63
2022-10-21T18:23:53.300Z,2.17
2022-10-21T18:26:28.706Z,2.80
2022-10-21T18:29:00.505Z,2.83
2022-10-21T18:31:32.218Z,2.77
2022-10-21T18:34:01.202Z,5.67
2022-10-21T18:36:28.503Z,3.47
2022-10-21T18:38:57.336Z,2.37
2022-10-21T18:41:24.385Z,2.43
2022-10-21T18:43:55.765Z,2.00
2022-10-21T18:46:23.422Z,2.27
2022-10-21T18:48:50.892Z,2.40
2022-10-21T18:51:19.449Z,2.20
2022-10-21T18:53:50.083Z,2.23
2022-10-21T18:56:21.493Z,2.17
2022-10-21T18:58:48.819Z,2.43
2022-10-21T19:01:17.336Z,2.70
2022-10-21T19:03:44.876Z,2.90
2022-10-21T19:06:38.813Z,2.20
2022-10-21T19:09:09.189Z,2.27
2022-10-21T19:11:36.355Z,3.20
2022-10-21T19:14:03.535Z,3.00
2022-10-21T19:16:30.586Z,2.90
2022-10-21T19:18:57.717Z,2.67
2022-10-21T19:21:25.336Z,3.50
2022-10-21T19:23:53.460Z,2.50
2022-10-21T19:26:23.189Z,3.30
2022-10-21T19:28:50.835Z,3.40
2022-10-21T19:31:21.352Z,3.47
2022-10-21T19:33:48.864Z,3.70
2022-10-21T19:36:15.765Z,3.10
2022-10-21T19:38:44.790Z,2.33
2022-10-21T19:41:16.588Z,1.70
2022-10-21T19:43:44.872Z,1.77
2022-10-21T19:46:19.922Z,0.77
2022-10-21T19:48:49.836Z,0.60
2022-10-21T19:51:20.527Z,0.60
2022-10-21T19:53:49.048Z,0.67
2022-10-21T19:56:18.822Z,0.50
2022-10-21T19:58:49.300Z,0.47
2022-10-21T20:01:24.010Z,1.00
2022-10-21T20:03:52.933Z,4.07
2022-10-21T20:06:27.893Z,0.73
2022-10-21T20:09:01.620Z,0.53
2022-10-21T20:11:29.757Z,0.53
2022-10-21T20:13:57.999Z,0.90
2022-10-21T20:16:31.652Z,0.60
2022-10-21T20:19:01.921Z,0.83
2022-10-21T20:21:30.751Z,0.80
2022-10-21T20:23:59.061Z,0.77
2022-10-21T20:26:26.572Z,0.80
2022-10-21T20:28:53.708Z,1.23
2022-10-21T20:31:21.155Z,0.93
2022-10-21T20:33:50.980Z,0.80
2022-10-21T20:36:22.840Z,0.73
2022-10-21T20:38:51.404Z,0.80
2022-10-21T20:41:23.548Z,1.10
2022-10-21T20:43:51.825Z,0.97
2022-10-21T20:46:22.241Z,1.13
2022-10-21T20:48:51.370Z,1.30
2022-10-21T20:51:29.402Z,1.10
2022-10-21T20:54:03.678Z,0.97
2022-10-21T20:56:38.110Z,1.17
2022-10-21T20:59:07.849Z,0.73
2022-10-21T21:01:42.046Z,1.13
2022-10-21T21:04:12.941Z,1.07
2022-10-21T21:06:43.835Z,0.87
2022-10-21T21:14:31.576Z,0.90
2022-10-21T21:16:58.503Z,0.93
2022-10-21T21:19:25.854Z,0.90
2022-10-21T21:21:53.382Z,0.90
2022-10-21T21:24:20.500Z,1.00
2022-10-21T21:26:47.697Z,1.40
2022-10-21T21:29:14.927Z,1.43
2022-10-21T21:31:42.944Z,1.73
2022-10-21T21:34:10.500Z,1.60
2022-10-21T21:36:37.659Z,1.23
2022-10-21T21:39:06.606Z,1.07
2022-10-21T21:41:34.820Z,0.80
2022-10-21T21:44:01.945Z,0.90
2022-10-21T21:46:28.814Z,0.60
2022-10-21T21:49:04.789Z,0.80
2022-10-21T21:51:35.798Z,1.20
2022-10-21T21:54:04.810Z,0.90
2022-10-21T21:56:31.811Z,1.40
2022-10-21T21:58:59.009Z,1.30
2022-10-21T22:01:28.878Z,1.90
2022-10-21T22:03:57.097Z,2.10
2022-10-21T22:06:30.203Z,2.10
2022-10-21T22:08:57.653Z,1.77
2022-10-21T22:11:29.525Z,1.37
2022-10-21T22:13:56.524Z,1.30
2022-10-21T22:16:27.449Z,0.80
2022-10-21T22:18:54.797Z,0.60
2022-10-21T22:21:21.864Z,0.87
2022-10-21T22:23:50.327Z,0.60
2022-10-21T22:26:20.096Z,0.93
2022-10-21T22:28:47.590Z,0.80
2022-10-21T22:31:17.322Z,1.27
2022-10-21T22:33:45.210Z,1.00
2022-10-21T22:36:12.185Z,0.63
2022-10-21T22:38:39.362Z,0.70
2022-10-21T22:41:09.980Z,0.80
2022-10-21T22:43:39.557Z,0.57
2022-10-21T22:46:21.502Z,0.90
2022-10-21T22:48:53.622Z,0.83
2022-10-21T22:51:20.885Z,1.00
2022-10-21T22:53:53.389Z,1.23
2022-10-21T22:56:24.597Z,0.67
2022-10-21T22:58:51.660Z,0.73
2022-10-21T23:01:18.816Z,0.47
2022-10-21T23:03:45.933Z,1.10
2022-10-21T23:06:12.880Z,0.60
2022-10-21T23:08:39.957Z,0.83
2022-10-21T23:11:06.948Z,0.60
2022-10-21T23:13:34.045Z,0.97
2022-10-21T23:16:00.918Z,0.73
2022-10-21T23:18:27.950Z,0.60
2022-10-21T23:20:55.068Z,1.00
2022-10-21T23:23:22.981Z,0.80
2022-10-21T23:25:50.312Z,0.70
2022-10-21T23:30:45.336Z,0.60
2022-10-21T23:33:12.395Z,0.73
2022-10-21T23:35:39.498Z,0.50
2022-10-21T23:38:06.990Z,0.40
2022-10-21T23:40:33.988Z,0.80
2022-10-21T23:43:00.927Z,0.77
2022-10-21T23:45:29.131Z,0.70
2022-10-21T23:47:56.157Z,0.80
2022-10-21T23:50:23.470Z,0.90
2022-10-21T23:52:50.572Z,1.33
2022-10-21T23:55:17.929Z,1.10
2022-10-21T23:57:45.163Z,1.03
